Air Quality Table

TIMESTAMP NO2 SO2 O3 PM10 PM2.5 CO TEMP HUM AIRPRES WS WD NO BENZENE
2022-12-08 14:00 17.83 µg/m3 0.41 µg/m3 65.83 µg/m3 46.78 µg/m3 12.2 µg/m3 0.18 mg/m3 20.04 °C 51.08 % 1,013.92 mbar 1.74 m/s 241.13 Deg 2.97 µg/m3 1.47 µg/m3
2022-12-08 13:00 18.1 µg/m3 0.41 µg/m3 65.54 µg/m3 40.57 µg/m3 12.9 µg/m3 0.18 mg/m3 19.86 °C 56.89 % 1,014.20 mbar 1.91 m/s 259.1 Deg 3.54 µg/m3 1.68 µg/m3
2022-12-08 12:00 21.65 µg/m3 0.44 µg/m3 59.83 µg/m3 43.29 µg/m3 12.97 µg/m3 0.2 mg/m3 19.41 °C 62.47 % 1,014.66 mbar 1.82 m/s 265.9 Deg 4.59 µg/m3 1.94 µg/m3
2022-12-08 11:00 24.04 µg/m3 0.48 µg/m3 54.93 µg/m3 54.34 µg/m3 16.29 µg/m3 0.25 mg/m3 18.73 °C 69.68 % 1,014.93 mbar 1.86 m/s 259.52 Deg 4.88 µg/m3 1.89 µg/m3
2022-12-08 10:00 32.28 µg/m3 0.5 µg/m3 45.34 µg/m3 43.22 µg/m3 17.53 µg/m3 0.27 mg/m3 18.02 °C 75.82 % 1,014.64 mbar 1.82 m/s 274.28 Deg 7.97 µg/m3 2.78 µg/m3
2022-12-08 09:00 43.53 µg/m3 0.71 µg/m3 21.64 µg/m3 36.3 µg/m3 24.2 µg/m3 0.41 mg/m3 16.91 °C 81.73 % 1,014.19 mbar 0.84 m/s 257.65 Deg 19.28 µg/m3 5.35 µg/m3
2022-12-08 08:00 64.58 µg/m3 1.24 µg/m3 3.94 µg/m3 30.12 µg/m3 20.08 µg/m3 0.66 mg/m3 14.85 °C 86.2 % 1,013.65 mbar 0.61 m/s 246.73 Deg 55.47 µg/m3 4.46 µg/m3
2022-12-08 07:00 55.57 µg/m3 0.98 µg/m3 3.57 µg/m3 24.54 µg/m3 16.37 µg/m3 0.53 mg/m3 14.38 °C 86.94 % 1,013.11 mbar 0.85 m/s 240.45 Deg 37.92 µg/m3 4.04 µg/m3
2022-12-08 06:00 42.66 µg/m3 0.65 µg/m3 13.31 µg/m3 23.53 µg/m3 15.71 µg/m3 0.38 mg/m3 14.71 °C 86.54 % 1,012.66 mbar 0.69 m/s 238.17 Deg 14.08 µg/m3 2.89 µg/m3
2022-12-08 05:00 38.84 µg/m3 0.55 µg/m3 12.08 µg/m3 24.32 µg/m3 16.21 µg/m3 0.35 mg/m3 14.77 °C 86.52 % 1,012.37 mbar 0.64 m/s 237.35 Deg 11.43 µg/m3 2.41 µg/m3
2022-12-08 04:00 41.35 µg/m3 0.52 µg/m3 13.06 µg/m3 26.71 µg/m3 17.81 µg/m3 0.29 mg/m3 15.36 °C 85.11 % 1,012.39 mbar 0.5 m/s 228.49 Deg 8.73 µg/m3 3.46 µg/m3
2022-12-08 03:00 45.17 µg/m3 0.63 µg/m3 7.89 µg/m3 32.32 µg/m3 21.55 µg/m3 0.51 mg/m3 15.44 °C 85.58 % 1,012.56 mbar 0.48 m/s 223.33 Deg 13.12 µg/m3 3.83 µg/m3
2022-12-08 02:00 46.8 µg/m3 0.5 µg/m3 11.02 µg/m3 36.89 µg/m3 24.64 µg/m3 0.45 mg/m3 15.84 °C 84.66 % 1,012.58 mbar 0.65 m/s 234.25 Deg 13.37 µg/m3 2.41 µg/m3
2022-12-08 01:00 41.79 µg/m3 0.52 µg/m3 13.37 µg/m3 42.26 µg/m3 28.17 µg/m3 0.43 mg/m3 16.17 °C 84.83 % 1,012.51 mbar 0.59 m/s 240.75 Deg 8.81 µg/m3 4.99 µg/m3
2022-12-08 00:00 44.5 µg/m3 1.18 µg/m3 2.64 µg/m3 94.74 µg/m3 63.18 µg/m3 0.77 mg/m3 16.05 °C 86.31 % 1,012.52 mbar 0.51 m/s 220.67 Deg 46.45 µg/m3 8.19 µg/m3
2022-12-07 23:00 48.4 µg/m3 1.4 µg/m3 2.15 µg/m3 110.61 µg/m3 73.77 µg/m3 0.91 mg/m3 16.4 °C 85.83 % 1,012.43 mbar 0.26 m/s 221.07 Deg 61.51 µg/m3 7.45 µg/m3
2022-12-07 22:00 50.45 µg/m3 1.23 µg/m3 1.88 µg/m3 124.16 µg/m3 82.8 µg/m3 0.8 mg/m3 16.54 °C 85.27 % 1,012.23 mbar 0.55 m/s 224.92 Deg 58.36 µg/m3 7.66 µg/m3
2022-12-07 21:00 59.74 µg/m3 1.63 µg/m3 2.53 µg/m3 125.34 µg/m3 83.59 µg/m3 1.01 mg/m3 16.91 °C 84.1 % 1,012.00 mbar 0.73 m/s 231.27 Deg 84.09 µg/m3 7.51 µg/m3
2022-12-07 20:00 59.95 µg/m3 0.93 µg/m3 1.83 µg/m3 121.71 µg/m3 81.17 µg/m3 0.64 mg/m3 17.38 °C 82.61 % 1,011.66 mbar 0.68 m/s 219.58 Deg 36.07 µg/m3 5.51 µg/m3
2022-12-07 19:00 65.98 µg/m3 0.94 µg/m3 3.12 µg/m3 121.32 µg/m3 80.91 µg/m3 0.69 mg/m3 17.79 °C 80.57 % 1,011.37 mbar 0.76 m/s 232.38 Deg 39.33 µg/m3 5.14 µg/m3
2022-12-07 18:00 64.55 µg/m3 0.79 µg/m3 7.71 µg/m3 100.6 µg/m3 67.08 µg/m3 0.63 mg/m3 18.19 °C 79.69 % 1,011.12 mbar 0.55 m/s 270.75 Deg 28.04 µg/m3 3.94 µg/m3
2022-12-07 17:00 52.63 µg/m3 0.67 µg/m3 19.6 µg/m3 88.14 µg/m3 58.77 µg/m3 0.49 mg/m3 18.61 °C 78.42 % 1,010.83 mbar 0.88 m/s 308.58 Deg 23.89 µg/m3 3.25 µg/m3
2022-12-07 16:00 33.04 µg/m3 0.5 µg/m3 39.83 µg/m3 155.86 µg/m3 54.14 µg/m3 0.31 mg/m3 19.2 °C 74.42 % 1,010.66 mbar 1.6 m/s 321.48 Deg 14.42 µg/m3 2.36 µg/m3
2022-12-07 15:00 36.44 µg/m3 0.59 µg/m3 32.46 µg/m3 205.99 µg/m3 58.15 µg/m3 0.32 mg/m3 19.88 °C 73.26 % 1,010.69 mbar 1.52 m/s 321.72 Deg 19.74 µg/m3 2.52 µg/m3
2022-12-07 14:00 35.95 µg/m3 0.62 µg/m3 38.26 µg/m3 146.85 µg/m3 35.49 µg/m3 0.34 mg/m3 20.52 °C 69.93 % 1,010.74 mbar 1.26 m/s 342.18 Deg 25.72 µg/m3 2.26 µg/m3
2022-12-07 13:00 36.01 µg/m3 0.69 µg/m3 36.75 µg/m3 127.34 µg/m3 26.14 µg/m3 0.33 mg/m3 21.01 °C 64.01 % 1,011.14 mbar 1.23 m/s 326.23 Deg 25.69 µg/m3 2.83 µg/m3
2022-12-07 12:00 32.91 µg/m3 0.57 µg/m3 36.65 µg/m3 128.66 µg/m3 25.86 µg/m3 0.3 mg/m3 20.88 °C 63.22 % 1,011.81 mbar 1.27 m/s 311.22 Deg 17.47 µg/m3 2.57 µg/m3
2022-12-07 11:00 38.37 µg/m3 0.59 µg/m3 24.1 µg/m3 137.89 µg/m3 26.96 µg/m3 0.31 mg/m3 20.62 °C 59.89 % 1,012.29 mbar 1.32 m/s 299.13 Deg 16.92 µg/m3 3.31 µg/m3
2022-12-07 10:00 59.8 µg/m3 1.02 µg/m3 13.78 µg/m3 97.43 µg/m3 26.7 µg/m3 0.48 mg/m3 19.75 °C 71.77 % 1,012.47 mbar 1.05 m/s 261.78 Deg 46.27 µg/m3 6.67 µg/m3
2022-12-07 09:00 68.59 µg/m3 1.55 µg/m3 5.11 µg/m3 43.45 µg/m3 28.97 µg/m3 0.76 mg/m3 18.48 °C 79.4 % 1,012.17 mbar 0.45 m/s 230.74 Deg 78.21 µg/m3 7.82 µg/m3
2022-12-07 08:00 64.69 µg/m3 1.25 µg/m3 4.56 µg/m3 36.7 µg/m3 24.47 µg/m3 0.67 mg/m3 17.62 °C 83.87 % 1,011.74 mbar 0.61 m/s 258.37 Deg 58.54 µg/m3 6.04 µg/m3
2022-12-07 07:00 56.73 µg/m3 1.37 µg/m3 4.47 µg/m3 29.85 µg/m3 19.9 µg/m3 0.65 mg/m3 17.52 °C 86.62 % 1,011.58 mbar 1.03 m/s 224.63 Deg 67.81 µg/m3 4.72 µg/m3
2022-12-07 06:00 44.43 µg/m3 0.96 µg/m3 5.84 µg/m3 24.28 µg/m3 16.2 µg/m3 0.44 mg/m3 17.24 °C 84.37 % 1,011.60 mbar 1.03 m/s 227.52 Deg 40.59 µg/m3 2.68 µg/m3
2022-12-07 05:00 28.29 µg/m3 0.57 µg/m3 16.45 µg/m3 17.42 µg/m3 11.61 µg/m3 0.23 mg/m3 17.13 °C 77.76 % 1,011.61 mbar 0.91 m/s 232.95 Deg 9.51 µg/m3 1.47 µg/m3
2022-12-07 04:00 16.39 µg/m3 0.46 µg/m3 42.05 µg/m3 13.31 µg/m3 8.79 µg/m3 0.18 mg/m3 17.45 °C 70.9 % 1,012.06 mbar 0.95 m/s 245.92 Deg 1.61 µg/m3 1.52 µg/m3
2022-12-07 03:00 10.7 µg/m3 0.39 µg/m3 54.26 µg/m3 17.4 µg/m3 8.16 µg/m3 0.15 mg/m3 18.39 °C 63.83 % 1,011.88 mbar 1.09 m/s 232.28 Deg -0.3 µg/m3 0.89 µg/m3
2022-12-07 02:00 7.75 µg/m3 0.36 µg/m3 58.23 µg/m3 25.52 µg/m3 11.44 µg/m3 0.13 mg/m3 18.65 °C 71.13 % 1,012.53 mbar 1.93 m/s 222.42 Deg -0.24 µg/m3 2.05 µg/m3
2022-12-07 01:00 35.35 µg/m3 0.54 µg/m3 30.51 µg/m3 26.25 µg/m3 17.5 µg/m3 0.29 mg/m3 18.56 °C 78.03 % 1,012.98 mbar 0.68 m/s 225.15 Deg 4.93 µg/m3 4.25 µg/m3
2022-12-07 00:00 58.21 µg/m3 0.93 µg/m3 8.96 µg/m3 36.04 µg/m3 24.03 µg/m3 0.65 mg/m3 17.59 °C 82.65 % 1,012.98 mbar 0.72 m/s 226.22 Deg 29.47 µg/m3 10.45 µg/m3
2022-12-06 23:00 67.44 µg/m3 1.75 µg/m3 2.6 µg/m3 54.46 µg/m3 36.31 µg/m3 1.11 mg/m3 17.25 °C 81.58 % 1,013.28 mbar 0.29 m/s 251.74 Deg 90.86 µg/m3 7.35 µg/m3
2022-12-06 22:00 68.84 µg/m3 0.94 µg/m3 8.44 µg/m3 42.68 µg/m3 28.45 µg/m3 0.64 mg/m3 18.19 °C 76.35 % 1,013.27 mbar 0.71 m/s 238.63 Deg 40.48 µg/m3 3.52 µg/m3
2022-12-06 21:00 40.24 µg/m3 0.46 µg/m3 41.38 µg/m3 32.94 µg/m3 21.96 µg/m3 0.34 mg/m3 18.58 °C 76.54 % 1,013.29 mbar 1.26 m/s 218.55 Deg 5.23 µg/m3 2.99 µg/m3
2022-12-06 20:00 56.14 µg/m3 0.83 µg/m3 20.84 µg/m3 44.11 µg/m3 29.41 µg/m3 0.54 mg/m3 18.52 °C 82.44 % 1,013.65 mbar 0.71 m/s 104.97 Deg 32.97 µg/m3 4.83 µg/m3
2022-12-06 19:00 66.74 µg/m3 1.13 µg/m3 10.62 µg/m3 52.89 µg/m3 35.26 µg/m3 0.69 mg/m3 18.78 °C 82.83 % 1,013.96 mbar 0.54 m/s 318.73 Deg 52.97 µg/m3 3.57 µg/m3
2022-12-06 18:00 56.84 µg/m3 0.71 µg/m3 21.87 µg/m3 48.44 µg/m3 32.29 µg/m3 0.51 mg/m3 18.75 °C 82.24 % 1,013.99 mbar 0.75 m/s 230.02 Deg 23 µg/m3 3.31 µg/m3
2022-12-06 17:00 44.39 µg/m3 0.56 µg/m3 39.6 µg/m3 41.75 µg/m3 27.84 µg/m3 0.41 mg/m3 19.01 °C 79.23 % 1,014.13 mbar 1.12 m/s 182.28 Deg 14.49 µg/m3 2.41 µg/m3
2022-12-06 16:00 34.17 µg/m3 0.52 µg/m3 50.93 µg/m3 71.08 µg/m3 24.68 µg/m3 0.31 mg/m3 19.52 °C 75.45 % 1,014.38 mbar 1.64 m/s 175.67 Deg 12.33 µg/m3 2.2 µg/m3

It is to be noted that the data is provisional and subject to quality assurance procedures. For validated data kindly refer your request to contact.air@era.org.mt